Главная страница
METAR-TAF:

METAR-TAF

Аэропорты :

Дакар, Сенегал

широта: 14-44N, долгота: 017-30W, высота над уровнем моря: 27 м

Текущие метеонаблюдения

Эта сводка был подготовлена 36 минут назад, в 22:00 UTC
Ветер 4 Узел от северный
Температура 18°C
Влажность 94%
Давление 1010 hPa
Видимость: 8000 м
небольшая облачность на высоте 1300 фута

METAR: GOOY 222200Z 36004KT 8000 FEW013 18/17 Q1010 NOSIG

Время: 22:36 (22:36 UTC)

Прогноз

Эта сводка был подготовлена 5 часа и 6 минут назад, в 17:30 UTC
Прогноз действительный с 22-го 18 UTC до 23-го 24 UTC
Ветер 8 Узел от северный
Видимость 10 км и более
Нет облачности ниже 1500 м, и нет кучево-дождевой облачности

TAF: GOOY 221730Z 2218/2324 36008KT CAVOK

Метеонаблюдения и прогнозы для более 4000 аэропортов (сводки METAR и TAF).

Имеющиеся станции представлены на карте желтыми и красными точками.

Чтобы увидеть название станции, наведите на нее мышь.

Затем щелкните, чтобы увидеть метеонаблюдения и метеопрогнозы.

Управление картой: чтобы увеличить масштаб, щелкните зеленые кнопки с черным крестиком; чтобы уменьшить масштаб, щелкните зеленую кнопку с тире; для просмотра соседних карт щелкайте зеленые стрелки.


METAR-TAF: